sensor_id;sensor_type;location;lat;lon;timestamp;pressure;altitude;pressure_sealevel;temperature;humidity
51460;BME280;37534;39.772;2.718;2023-03-16T00:01:03;101467.84;;;9.50;100.00
51460;BME280;37534;39.772;2.718;2023-03-16T00:03:29;101451.56;;;9.45;100.00
51460;BME280;37534;39.772;2.718;2023-03-16T00:05:54;101455.03;;;9.45;100.00
51460;BME280;37534;39.772;2.718;2023-03-16T00:08:20;101448.13;;;9.49;100.00
51460;BME280;37534;39.772;2.718;2023-03-16T00:10:46;101463.47;;;9.61;100.00
51460;BME280;37534;39.772;2.718;2023-03-16T00:13:16;101465.16;;;9.59;100.00
51460;BME280;37534;39.772;2.718;2023-03-16T00:15:55;101468.63;;;9.60;100.00
51460;BME280;37534;39.772;2.718;2023-03-16T00:18:24;101470.31;;;9.61;100.00
51460;BME280;37534;39.772;2.718;2023-03-16T00:20:53;101463.47;;;9.61;100.00
51460;BME280;37534;39.772;2.718;2023-03-16T00:23:20;101462.66;;;9.56;100.00
51460;BME280;37534;39.772;2.718;2023-03-16T00:26:02;101466.88;;;9.60;100.00
51460;BME280;37534;39.772;2.718;2023-03-16T00:28:29;101467.84;;;9.51;100.00
51460;BME280;37534;39.772;2.718;2023-03-16T00:31:04;101465.34;;;9.44;100.00
51460;BME280;37534;39.772;2.718;2023-03-16T00:33:30;101467.13;;;9.36;100.00
51460;BME280;37534;39.772;2.718;2023-03-16T00:36:02;101474.88;;;9.32;100.00
51460;BME280;37534;39.772;2.718;2023-03-16T00:38:34;101460.31;;;9.28;100.00
51460;BME280;37534;39.772;2.718;2023-03-16T00:41:01;101462.97;;;9.22;100.00
51460;BME280;37534;39.772;2.718;2023-03-16T00:43:29;101462.16;;;9.12;100.00
51460;BME280;37534;39.772;2.718;2023-03-16T00:45:59;101452.69;;;9.16;100.00
51460;BME280;37534;39.772;2.718;2023-03-16T00:48:38;101451.03;;;9.09;100.00
51460;BME280;37534;39.772;2.718;2023-03-16T00:51:06;101458.75;;;9.10;100.00
51460;BME280;37534;39.772;2.718;2023-03-16T00:53:33;101458.75;;;9.12;100.00
51460;BME280;37534;39.772;2.718;2023-03-16T00:55:59;101462.25;;;8.99;100.00
51460;BME280;37534;39.772;2.718;2023-03-16T00:58:29;101458.03;;;8.93;100.00
51460;BME280;37534;39.772;2.718;2023-03-16T01:01:01;101447.78;;;8.88;100.00
51460;BME280;37534;39.772;2.718;2023-03-16T01:03:26;101445.16;;;8.90;100.00
51460;BME280;37534;39.772;2.718;2023-03-16T01:05:52;101450.31;;;8.91;100.00
51460;BME280;37534;39.772;2.718;2023-03-16T01:08:18;101452.88;;;8.90;100.00
51460;BME280;37534;39.772;2.718;2023-03-16T01:10:43;101446.00;;;8.93;100.00
51460;BME280;37534;39.772;2.718;2023-03-16T01:13:10;101444.31;;;8.92;100.00
51460;BME280;37534;39.772;2.718;2023-03-16T01:15:37;101440.91;;;8.87;100.00
51460;BME280;37534;39.772;2.718;2023-03-16T01:18:03;101447.69;;;9.01;100.00
51460;BME280;37534;39.772;2.718;2023-03-16T01:20:29;101445.97;;;8.98;100.00
51460;BME280;37534;39.772;2.718;2023-03-16T01:22:55;101444.25;;;8.97;100.00
51460;BME280;37534;39.772;2.718;2023-03-16T01:25:20;101437.44;;;8.93;100.00
51460;BME280;37534;39.772;2.718;2023-03-16T01:27:46;101452.88;;;8.93;100.00
51460;BME280;37534;39.772;2.718;2023-03-16T01:30:12;101436.59;;;8.86;100.00
51460;BME280;37534;39.772;2.718;2023-03-16T01:32:38;101441.72;;;8.92;100.00
51460;BME280;37534;39.772;2.718;2023-03-16T01:35:06;101421.06;;;9.02;100.00
51460;BME280;37534;39.772;2.718;2023-03-16T01:37:31;101417.75;;;8.84;100.00
51460;BME280;37534;39.772;2.718;2023-03-16T01:39:57;101427.22;;;8.84;100.00
51460;BME280;37534;39.772;2.718;2023-03-16T01:42:22;101409.28;;;8.74;100.00
51460;BME280;37534;39.772;2.718;2023-03-16T01:44:59;101416.09;;;8.75;100.00
51460;BME280;37534;39.772;2.718;2023-03-16T01:47:30;101403.28;;;8.72;100.00
51460;BME280;37534;39.772;2.718;2023-03-16T01:50:03;101393.84;;;8.70;100.00
51460;BME280;37534;39.772;2.718;2023-03-16T01:52:33;101414.34;;;8.82;100.00
51460;BME280;37534;39.772;2.718;2023-03-16T01:55:03;101410.06;;;8.83;100.00
51460;BME280;37534;39.772;2.718;2023-03-16T01:57:33;101395.50;;;8.83;100.00
51460;BME280;37534;39.772;2.718;2023-03-16T02:00:19;101405.63;;;8.99;100.00
51460;BME280;37534;39.772;2.718;2023-03-16T02:02:51;101397.06;;;9.00;100.00
51460;BME280;37534;39.772;2.718;2023-03-16T02:05:29;101386.06;;;8.79;100.00
51460;BME280;37534;39.772;2.718;2023-03-16T02:07:58;101389.53;;;8.72;100.00
51460;BME280;37534;39.772;2.718;2023-03-16T02:10:27;101391.34;;;8.65;100.00
51460;BME280;37534;39.772;2.718;2023-03-16T02:12:53;101407.63;;;8.66;100.00
51460;BME280;37534;39.772;2.718;2023-03-16T02:15:20;101394.81;;;8.56;100.00
51460;BME280;37534;39.772;2.718;2023-03-16T02:17:46;101385.47;;;8.43;100.00
51460;BME280;37534;39.772;2.718;2023-03-16T02:23:03;101383.66;;;8.57;100.00
51460;BME280;37534;39.772;2.718;2023-03-16T02:25:37;101384.50;;;8.60;100.00
51460;BME280;37534;39.772;2.718;2023-03-16T02:30:36;101389.63;;;8.63;100.00
51460;BME280;37534;39.772;2.718;2023-03-16T02:33:02;101384.53;;;8.55;100.00
51460;BME280;37534;39.772;2.718;2023-03-16T02:35:30;101376.00;;;8.48;100.00
51460;BME280;37534;39.772;2.718;2023-03-16T02:37:56;101383.72;;;8.51;100.00
51460;BME280;37534;39.772;2.718;2023-03-16T02:40:27;101379.47;;;8.44;100.00
51460;BME280;37534;39.772;2.718;2023-03-16T02:43:08;101383.72;;;8.45;100.00
51460;BME280;37534;39.772;2.718;2023-03-16T02:45:42;101376.03;;;8.44;100.00
51460;BME280;37534;39.772;2.718;2023-03-16T02:48:15;101378.63;;;8.42;100.00
51460;BME280;37534;39.772;2.718;2023-03-16T02:50:47;101370.91;;;8.36;100.00
51460;BME280;37534;39.772;2.718;2023-03-16T02:53:15;101371.81;;;8.32;100.00
51460;BME280;37534;39.772;2.718;2023-03-16T02:55:40;101380.31;;;8.40;100.00
51460;BME280;37534;39.772;2.718;2023-03-16T02:58:06;101375.16;;;8.48;100.00
51460;BME280;37534;39.772;2.718;2023-03-16T03:00:33;101381.13;;;8.50;100.00
51460;BME280;37534;39.772;2.718;2023-03-16T03:02:58;101378.59;;;8.45;100.00
51460;BME280;37534;39.772;2.718;2023-03-16T03:05:24;101385.44;;;8.40;100.00
51460;BME280;37534;39.772;2.718;2023-03-16T03:07:49;101381.25;;;8.30;100.00
51460;BME280;37534;39.772;2.718;2023-03-16T03:10:15;101378.69;;;8.27;100.00
51460;BME280;37534;39.772;2.718;2023-03-16T03:12:41;101371.84;;;8.23;100.00
51460;BME280;37534;39.772;2.718;2023-03-16T03:15:07;101380.41;;;8.22;100.00
51460;BME280;37534;39.772;2.718;2023-03-16T03:17:33;101379.59;;;8.18;100.00
51460;BME280;37534;39.772;2.718;2023-03-16T03:20:00;101371.88;;;8.21;100.00
51460;BME280;37534;39.772;2.718;2023-03-16T03:22:38;101385.47;;;8.43;100.00
51460;BME280;37534;39.772;2.718;2023-03-16T03:25:03;101378.69;;;8.25;100.00
51460;BME280;37534;39.772;2.718;2023-03-16T03:27:29;101365.94;;;8.05;100.00
51460;BME280;37534;39.772;2.718;2023-03-16T03:29:54;101384.78;;;8.06;100.00
51460;BME280;37534;39.772;2.718;2023-03-16T03:32:20;101388.25;;;7.98;100.00
51460;BME280;37534;39.772;2.718;2023-03-16T03:34:46;101378.00;;;7.89;100.00
51460;BME280;37534;39.772;2.718;2023-03-16T03:37:11;101384.78;;;8.09;100.00
51460;BME280;37534;39.772;2.718;2023-03-16T03:39:37;101383.84;;;8.21;100.00
51460;BME280;37534;39.772;2.718;2023-03-16T03:42:05;101380.53;;;8.02;100.00
51460;BME280;37534;39.772;2.718;2023-03-16T03:44:30;101383.09;;;7.98;100.00
51460;BME280;37534;39.772;2.718;2023-03-16T03:46:58;101370.34;;;7.78;100.00
51460;BME280;37534;39.772;2.718;2023-03-16T03:49:24;101389.13;;;7.93;100.00
51460;BME280;37534;39.772;2.718;2023-03-16T03:51:50;101388.25;;;7.94;100.00
51460;BME280;37534;39.772;2.718;2023-03-16T03:54:15;101375.41;;;7.94;100.00
51460;BME280;37534;39.772;2.718;2023-03-16T03:56:41;101384.88;;;7.83;100.00
51460;BME280;37534;39.772;2.718;2023-03-16T03:59:07;101394.31;;;7.77;100.00
51460;BME280;37534;39.772;2.718;2023-03-16T04:01:32;101389.22;;;7.73;100.00
51460;BME280;37534;39.772;2.718;2023-03-16T04:03:58;101388.38;;;7.69;100.00
51460;BME280;37534;39.772;2.718;2023-03-16T04:06:23;101396.06;;;7.69;100.00
51460;BME280;37534;39.772;2.718;2023-03-16T04:08:49;101402.91;;;7.69;100.00
51460;BME280;37534;39.772;2.718;2023-03-16T04:11:15;101398.66;;;7.69;100.00
51460;BME280;37534;39.772;2.718;2023-03-16T04:13:41;101402.91;;;7.73;100.00
51460;BME280;37534;39.772;2.718;2023-03-16T04:16:07;101399.50;;;7.71;100.00
51460;BME280;37534;39.772;2.718;2023-03-16T04:18:33;101405.47;;;7.66;100.00
51460;BME280;37534;39.772;2.718;2023-03-16T04:21:06;101409.75;;;7.68;100.00
51460;BME280;37534;39.772;2.718;2023-03-16T04:23:33;101401.19;;;7.72;100.00
51460;BME280;37534;39.772;2.718;2023-03-16T04:25:59;101402.94;;;7.64;100.00
51460;BME280;37534;39.772;2.718;2023-03-16T04:28:25;101393.50;;;7.65;100.00
51460;BME280;37534;39.772;2.718;2023-03-16T04:30:54;101396.91;;;7.71;100.00
51460;BME280;37534;39.772;2.718;2023-03-16T04:33:21;101406.28;;;7.81;100.00
51460;BME280;37534;39.772;2.718;2023-03-16T04:35:47;101390.91;;;7.77;100.00
51460;BME280;37534;39.772;2.718;2023-03-16T04:38:13;101385.81;;;7.66;100.00
51460;BME280;37534;39.772;2.718;2023-03-16T04:40:39;101378.16;;;7.46;100.00
51460;BME280;37534;39.772;2.718;2023-03-16T04:43:04;101392.72;;;7.38;100.00
51460;BME280;37534;39.772;2.718;2023-03-16T04:45:30;101392.72;;;7.39;100.00
51460;BME280;37534;39.772;2.718;2023-03-16T04:47:57;101389.28;;;7.47;100.00
51460;BME280;37534;39.772;2.718;2023-03-16T04:50:22;101401.28;;;7.41;100.00
51460;BME280;37534;39.772;2.718;2023-03-16T04:52:48;101396.97;;;7.43;100.00
51460;BME280;37534;39.772;2.718;2023-03-16T04:55:13;101394.41;;;7.40;100.00
51460;BME280;37534;39.772;2.718;2023-03-16T04:57:39;101396.97;;;7.50;100.00
51460;BME280;37534;39.772;2.718;2023-03-16T05:00:05;101395.25;;;7.52;100.00
51460;BME280;37534;39.772;2.718;2023-03-16T05:02:42;101390.97;;;7.55;100.00
51460;BME280;37534;39.772;2.718;2023-03-16T05:05:08;101400.41;;;7.46;100.00
51460;BME280;37534;39.772;2.718;2023-03-16T05:07:34;101390.97;;;7.48;100.00
51460;BME280;37534;39.772;2.718;2023-03-16T05:09:59;101402.06;;;7.62;100.00
51460;BME280;37534;39.772;2.718;2023-03-16T05:12:25;101398.66;;;7.63;100.00
51460;BME280;37534;39.772;2.718;2023-03-16T05:14:50;101385.00;;;7.47;100.00
51460;BME280;37534;39.772;2.718;2023-03-16T05:17:16;101391.03;;;7.32;100.00
51460;BME280;37534;39.772;2.718;2023-03-16T05:19:41;101378.19;;;7.17;100.00
51460;BME280;37534;39.772;2.718;2023-03-16T05:22:07;101382.47;;;7.12;100.00
51460;BME280;37534;39.772;2.718;2023-03-16T05:24:33;101372.22;;;7.02;100.00
51460;BME280;37534;39.772;2.718;2023-03-16T05:26:58;101391.03;;;7.12;100.00
51460;BME280;37534;39.772;2.718;2023-03-16T05:29:24;101389.34;;;7.13;100.00
51460;BME280;37534;39.772;2.718;2023-03-16T05:31:51;101380.75;;;7.14;100.00
51460;BME280;37534;39.772;2.718;2023-03-16T05:34:16;101385.91;;;7.14;100.00
51460;BME280;37534;39.772;2.718;2023-03-16T05:36:41;101386.72;;;7.50;100.00
51460;BME280;37534;39.772;2.718;2023-03-16T05:39:09;101391.84;;;7.50;100.00
51460;BME280;37534;39.772;2.718;2023-03-16T05:41:35;101383.31;;;7.26;100.00
51460;BME280;37534;39.772;2.718;2023-03-16T05:44:01;101382.47;;;7.21;100.00
51460;BME280;37534;39.772;2.718;2023-03-16T05:46:29;101394.44;;;7.19;100.00
51460;BME280;37534;39.772;2.718;2023-03-16T05:48:54;101387.56;;;7.35;100.00
51460;BME280;37534;39.772;2.718;2023-03-16T05:51:20;101389.31;;;7.34;100.00
51460;BME280;37534;39.772;2.718;2023-03-16T05:53:47;101381.63;;;7.07;100.00
51460;BME280;37534;39.772;2.718;2023-03-16T05:56:12;101394.47;;;7.03;100.00
51460;BME280;37534;39.772;2.718;2023-03-16T05:58:38;101379.91;;;6.99;100.00
51460;BME280;37534;39.772;2.718;2023-03-16T06:01:04;101387.63;;;7.07;100.00
51460;BME280;37534;39.772;2.718;2023-03-16T06:03:30;101389.34;;;7.13;100.00
51460;BME280;37534;39.772;2.718;2023-03-16T06:05:56;101386.75;;;7.17;100.00
51460;BME280;37534;39.772;2.718;2023-03-16T06:08:21;101379.91;;;7.10;100.00
51460;BME280;37534;39.772;2.718;2023-03-16T06:10:47;101379.94;;;7.02;100.00
51460;BME280;37534;39.772;2.718;2023-03-16T06:13:13;101374.78;;;6.96;100.00
51460;BME280;37534;39.772;2.718;2023-03-16T06:15:39;101373.94;;;7.07;100.00
51460;BME280;37534;39.772;2.718;2023-03-16T06:18:04;101380.78;;;7.23;100.00
51460;BME280;37534;39.772;2.718;2023-03-16T06:20:30;101382.47;;;7.09;100.00
51460;BME280;37534;39.772;2.718;2023-03-16T06:22:56;101384.22;;;7.03;100.00
51460;BME280;37534;39.772;2.718;2023-03-16T06:25:21;101383.34;;;7.01;100.00
51460;BME280;37534;39.772;2.718;2023-03-16T06:27:48;101379.91;;;7.09;100.00
51460;BME280;37534;39.772;2.718;2023-03-16T06:30:14;101389.31;;;7.17;100.00
51460;BME280;37534;39.772;2.718;2023-03-16T06:32:41;101384.19;;;7.25;100.00
51460;BME280;37534;39.772;2.718;2023-03-16T06:35:07;101388.47;;;7.18;100.00
51460;BME280;37534;39.772;2.718;2023-03-16T06:37:33;101382.47;;;7.12;100.00
51460;BME280;37534;39.772;2.718;2023-03-16T06:39:59;101390.16;;;7.21;100.00
51460;BME280;37534;39.772;2.718;2023-03-16T06:42:25;101383.34;;;7.21;100.00
51460;BME280;37534;39.772;2.718;2023-03-16T06:44:50;101392.72;;;7.33;100.00
51460;BME280;37534;39.772;2.718;2023-03-16T06:47:17;101392.75;;;7.30;100.00
51460;BME280;37534;39.772;2.718;2023-03-16T06:49:43;101393.56;;;7.37;100.00
51460;BME280;37534;39.772;2.718;2023-03-16T06:52:08;101387.59;;;7.39;100.00
51460;BME280;37534;39.772;2.718;2023-03-16T06:54:38;101387.59;;;7.39;100.00
51460;BME280;37534;39.772;2.718;2023-03-16T06:57:04;101393.56;;;7.40;100.00
51460;BME280;37534;39.772;2.718;2023-03-16T06:59:30;101414.94;;;7.56;100.00
51460;BME280;37534;39.772;2.718;2023-03-16T07:01:56;101412.38;;;7.60;100.00
51460;BME280;37534;39.772;2.718;2023-03-16T07:04:21;101413.22;;;7.55;100.00
51460;BME280;37534;39.772;2.718;2023-03-16T07:06:47;101417.47;;;7.67;100.00
51460;BME280;37534;39.772;2.718;2023-03-16T07:09:12;101425.19;;;7.68;100.00
51460;BME280;37534;39.772;2.718;2023-03-16T07:11:39;101423.28;;;8.19;100.00
51460;BME280;37534;39.772;2.718;2023-03-16T07:14:04;101437.66;;;9.64;100.00
51460;BME280;37534;39.772;2.718;2023-03-16T07:16:30;101423.88;;;10.97;100.00
51460;BME280;37534;39.772;2.718;2023-03-16T07:18:56;101430.81;;;12.71;100.00
51460;BME280;37534;39.772;2.718;2023-03-16T07:21:22;101432.31;;;14.13;88.94
51460;BME280;37534;39.772;2.718;2023-03-16T07:23:48;101435.50;;;13.93;80.27
51460;BME280;37534;39.772;2.718;2023-03-16T07:26:13;101437.91;;;13.99;79.80
51460;BME280;37534;39.772;2.718;2023-03-16T07:28:39;101448.69;;;15.01;75.37
51460;BME280;37534;39.772;2.718;2023-03-16T07:31:05;101453.25;;;15.20;72.37
51460;BME280;37534;39.772;2.718;2023-03-16T07:33:35;101443.47;;;15.78;69.46
51460;BME280;37534;39.772;2.718;2023-03-16T07:36:01;101435.28;;;16.57;67.44
51460;BME280;37534;39.772;2.718;2023-03-16T07:38:31;101439.41;;;16.63;64.09
51460;BME280;37534;39.772;2.718;2023-03-16T07:40:59;101443.59;;;17.32;62.53
51460;BME280;37534;39.772;2.718;2023-03-16T07:43:25;101437.31;;;18.70;54.89
51460;BME280;37534;39.772;2.718;2023-03-16T07:45:51;101434.16;;;20.33;49.92
51460;BME280;37534;39.772;2.718;2023-03-16T07:48:17;101441.53;;;21.78;45.15
51460;BME280;37534;39.772;2.718;2023-03-16T07:50:43;101445.88;;;23.03;41.75
51460;BME280;37534;39.772;2.718;2023-03-16T07:53:10;101441.69;;;23.90;39.86
51460;BME280;37534;39.772;2.718;2023-03-16T07:55:36;101441.91;;;24.96;37.40
51460;BME280;37534;39.772;2.718;2023-03-16T07:58:03;101434.53;;;25.92;36.15
51460;BME280;37534;39.772;2.718;2023-03-16T08:00:30;101440.50;;;26.60;34.69
51460;BME280;37534;39.772;2.718;2023-03-16T08:02:56;101448.94;;;27.07;33.32
51460;BME280;37534;39.772;2.718;2023-03-16T08:05:22;101453.50;;;27.68;32.83
51460;BME280;37534;39.772;2.718;2023-03-16T08:07:47;101451.13;;;28.06;31.18
51460;BME280;37534;39.772;2.718;2023-03-16T08:10:13;101445.44;;;28.30;30.51
51460;BME280;37534;39.772;2.718;2023-03-16T08:12:39;101440.28;;;29.07;30.49
51460;BME280;37534;39.772;2.718;2023-03-16T08:15:06;101440.94;;;29.28;29.49
51460;BME280;37534;39.772;2.718;2023-03-16T08:17:32;101448.09;;;29.18;29.46
51460;BME280;37534;39.772;2.718;2023-03-16T08:19:58;101444.13;;;28.05;29.68
51460;BME280;37534;39.772;2.718;2023-03-16T08:22:24;101439.94;;;29.29;27.82
51460;BME280;37534;39.772;2.718;2023-03-16T08:24:50;101448.56;;;30.06;26.83
51460;BME280;37534;39.772;2.718;2023-03-16T08:27:16;101443.91;;;29.90;27.14
51460;BME280;37534;39.772;2.718;2023-03-16T08:29:44;101446.75;;;30.25;26.34
51460;BME280;37534;39.772;2.718;2023-03-16T08:32:09;101451.03;;;30.89;26.71
51460;BME280;37534;39.772;2.718;2023-03-16T08:34:36;101441.56;;;31.21;25.13
51460;BME280;37534;39.772;2.718;2023-03-16T08:37:04;101448.84;;;32.14;24.54
51460;BME280;37534;39.772;2.718;2023-03-16T08:39:31;101443.53;;;31.45;24.50
51460;BME280;37534;39.772;2.718;2023-03-16T08:41:57;101453.03;;;32.25;23.35
51460;BME280;37534;39.772;2.718;2023-03-16T08:44:23;101451.84;;;31.69;23.56
51460;BME280;37534;39.772;2.718;2023-03-16T08:46:50;101445.19;;;32.24;22.59
51460;BME280;37534;39.772;2.718;2023-03-16T08:49:16;101441.59;;;30.59;23.07
51460;BME280;37534;39.772;2.718;2023-03-16T08:51:41;101439.63;;;31.05;22.16
51460;BME280;37534;39.772;2.718;2023-03-16T08:54:07;101445.34;;;31.71;22.16
51460;BME280;37534;39.772;2.718;2023-03-16T08:56:32;101444.72;;;32.86;20.30
51460;BME280;37534;39.772;2.718;2023-03-16T08:58:58;101442.72;;;33.52;19.74
51460;BME280;37534;39.772;2.718;2023-03-16T09:01:24;101446.03;;;34.71;18.87
51460;BME280;37534;39.772;2.718;2023-03-16T09:03:50;101448.41;;;35.19;18.95
51460;BME280;37534;39.772;2.718;2023-03-16T09:06:17;101447.06;;;34.47;18.85
51460;BME280;37534;39.772;2.718;2023-03-16T09:08:43;101447.69;;;33.07;19.42
51460;BME280;37534;39.772;2.718;2023-03-16T09:11:12;101448.81;;;31.63;21.22
51460;BME280;37534;39.772;2.718;2023-03-16T09:13:39;101429.16;;;33.14;20.52
51460;BME280;37534;39.772;2.718;2023-03-16T09:16:06;101429.94;;;34.02;18.74
51460;BME280;37534;39.772;2.718;2023-03-16T09:18:32;101427.47;;;34.70;19.08
51460;BME280;37534;39.772;2.718;2023-03-16T09:21:00;101433.22;;;34.81;18.25
51460;BME280;37534;39.772;2.718;2023-03-16T09:23:27;101436.56;;;34.14;18.69
51460;BME280;37534;39.772;2.718;2023-03-16T09:25:57;101435.91;;;33.49;18.57
51460;BME280;37534;39.772;2.718;2023-03-16T09:28:24;101432.75;;;33.77;19.05
51460;BME280;37534;39.772;2.718;2023-03-16T09:30:54;101421.66;;;34.20;18.28
51460;BME280;37534;39.772;2.718;2023-03-16T09:33:22;101420.66;;;34.13;18.54
51460;BME280;37534;39.772;2.718;2023-03-16T09:35:48;101417.25;;;33.25;18.52
51460;BME280;37534;39.772;2.718;2023-03-16T09:38:15;101429.22;;;33.85;18.24
51460;BME280;37534;39.772;2.718;2023-03-16T09:40:42;101421.69;;;35.11;17.46
51460;BME280;37534;39.772;2.718;2023-03-16T09:46:28;101426.16;;;36.21;17.27
51460;BME280;37534;39.772;2.718;2023-03-16T09:48:57;101417.97;;;37.14;16.45
51460;BME280;37534;39.772;2.718;2023-03-16T09:53:58;101417.50;;;37.39;16.95
51460;BME280;37534;39.772;2.718;2023-03-16T09:56:31;101416.66;;;38.00;16.13
51460;BME280;37534;39.772;2.718;2023-03-16T09:58:58;101421.28;;;37.51;15.53
51460;BME280;37534;39.772;2.718;2023-03-16T10:01:45;101410.56;;;35.58;16.95
51460;BME280;37534;39.772;2.718;2023-03-16T10:04:39;101404.44;;;35.65;17.54
51460;BME280;37534;39.772;2.718;2023-03-16T10:07:21;101393.78;;;34.52;18.22
51460;BME280;37534;39.772;2.718;2023-03-16T10:10:02;101391.72;;;34.77;16.96
51460;BME280;37534;39.772;2.718;2023-03-16T10:12:37;101395.84;;;36.56;16.39
51460;BME280;37534;39.772;2.718;2023-03-16T10:15:14;101390.16;;;37.35;14.46
51460;BME280;37534;39.772;2.718;2023-03-16T10:20:21;101387.81;;;39.07;15.04
51460;BME280;37534;39.772;2.718;2023-03-16T10:22:49;101399.78;;;39.70;13.99
51460;BME280;37534;39.772;2.718;2023-03-16T10:26:03;101391.03;;;39.75;14.40
51460;BME280;37534;39.772;2.718;2023-03-16T10:28:16;101386.34;;;40.20;13.64
51460;BME280;37534;39.772;2.718;2023-03-16T10:30:42;101386.75;;;39.60;13.93
51460;BME280;37534;39.772;2.718;2023-03-16T10:33:22;101386.31;;;39.63;14.53
51460;BME280;37534;39.772;2.718;2023-03-16T10:35:57;101375.56;;;38.98;15.34
51460;BME280;37534;39.772;2.718;2023-03-16T10:41:28;101375.41;;;39.45;15.25
51460;BME280;37534;39.772;2.718;2023-03-16T10:44:22;101372.97;;;39.30;14.96
51460;BME280;37534;39.772;2.718;2023-03-16T10:47:00;101375.91;;;39.67;14.41
51460;BME280;37534;39.772;2.718;2023-03-16T10:49:28;101371.03;;;39.50;15.32
51460;BME280;37534;39.772;2.718;2023-03-16T10:51:56;101374.78;;;39.81;15.01
51460;BME280;37534;39.772;2.718;2023-03-16T10:54:30;101372.00;;;39.63;14.92
51460;BME280;37534;39.772;2.718;2023-03-16T10:56:58;101359.13;;;39.20;16.08
51460;BME280;37534;39.772;2.718;2023-03-16T10:59:32;101351.09;;;38.93;16.49
51460;BME280;37534;39.772;2.718;2023-03-16T11:02:14;101342.16;;;38.99;15.78
51460;BME280;37534;39.772;2.718;2023-03-16T11:04:40;101359.00;;;39.46;15.36
51460;BME280;37534;39.772;2.718;2023-03-16T11:07:16;101342.53;;;39.16;15.83
51460;BME280;37534;39.772;2.718;2023-03-16T11:09:43;101335.63;;;38.68;16.35
51460;BME280;37534;39.772;2.718;2023-03-16T11:12:33;101334.34;;;38.77;16.99
51460;BME280;37534;39.772;2.718;2023-03-16T11:15:03;101333.88;;;38.94;16.56
51460;BME280;37534;39.772;2.718;2023-03-16T11:17:36;101340.25;;;39.20;16.90
51460;BME280;37534;39.772;2.718;2023-03-16T11:20:09;101327.47;;;38.82;16.67
51460;BME280;37534;39.772;2.718;2023-03-16T11:22:42;101332.88;;;38.75;17.02
51460;BME280;37534;39.772;2.718;2023-03-16T11:25:58;101331.53;;;38.26;17.11
51460;BME280;37534;39.772;2.718;2023-03-16T11:33:10;101318.06;;;38.12;17.59
51460;BME280;37534;39.772;2.718;2023-03-16T11:41:27;101299.81;;;38.08;16.96
51460;BME280;37534;39.772;2.718;2023-03-16T11:43:56;101301.22;;;38.44;16.91
51460;BME280;37534;39.772;2.718;2023-03-16T11:46:41;101312.78;;;38.77;16.51
51460;BME280;37534;39.772;2.718;2023-03-16T11:51:51;101299.59;;;38.36;16.29
51460;BME280;37534;39.772;2.718;2023-03-16T12:00:26;101294.56;;;38.66;17.09
51460;BME280;37534;39.772;2.718;2023-03-16T12:03:31;101296.00;;;39.21;16.71
51460;BME280;37534;39.772;2.718;2023-03-16T12:06:39;101293.34;;;38.49;17.93
51460;BME280;37534;39.772;2.718;2023-03-16T12:12:35;101286.53;;;38.26;19.02
51460;BME280;37534;39.772;2.718;2023-03-16T12:17:51;101287.97;;;38.09;19.45
51460;BME280;37534;39.772;2.718;2023-03-16T12:20:52;101290.03;;;38.47;18.19
51460;BME280;37534;39.772;2.718;2023-03-16T12:23:41;101285.06;;;38.44;18.09
51460;BME280;37534;39.772;2.718;2023-03-16T12:26:08;101283.84;;;37.79;18.30
51460;BME280;37534;39.772;2.718;2023-03-16T12:28:33;101275.16;;;37.71;17.71
51460;BME280;37534;39.772;2.718;2023-03-16T12:31:30;101277.63;;;37.85;18.07
51460;BME280;37534;39.772;2.718;2023-03-16T12:44:59;101276.75;;;37.52;19.01
51460;BME280;37534;39.772;2.718;2023-03-16T12:50:09;101261.28;;;37.87;19.49
51460;BME280;37534;39.772;2.718;2023-03-16T12:52:48;101255.66;;;37.82;19.56
51460;BME280;37534;39.772;2.718;2023-03-16T12:58:04;101268.06;;;37.56;20.48
51460;BME280;37534;39.772;2.718;2023-03-16T13:00:39;101273.81;;;37.26;20.48
51460;BME280;37534;39.772;2.718;2023-03-16T13:03:14;101267.22;;;37.62;20.69
51460;BME280;37534;39.772;2.718;2023-03-16T13:06:00;101262.72;;;37.70;20.15
51460;BME280;37534;39.772;2.718;2023-03-16T13:08:42;101260.66;;;37.85;19.71
51460;BME280;37534;39.772;2.718;2023-03-16T13:11:11;101266.41;;;37.55;20.14
51460;BME280;37534;39.772;2.718;2023-03-16T13:16:26;101263.84;;;37.20;20.88
51460;BME280;37534;39.772;2.718;2023-03-16T13:18:53;101279.09;;;36.65;22.72
51460;BME280;37534;39.772;2.718;2023-03-16T13:26:50;101281.41;;;36.11;23.45
51460;BME280;37534;39.772;2.718;2023-03-16T13:29:22;101290.63;;;36.24;23.21
51460;BME280;37534;39.772;2.718;2023-03-16T13:31:48;101293.88;;;35.91;23.75
51460;BME280;37534;39.772;2.718;2023-03-16T13:36:53;101278.81;;;35.96;23.26
51460;BME280;37534;39.772;2.718;2023-03-16T13:39:21;101278.50;;;35.63;23.47
51460;BME280;37534;39.772;2.718;2023-03-16T13:44:22;101265.28;;;36.11;22.27
51460;BME280;37534;39.772;2.718;2023-03-16T13:46:48;101253.44;;;35.99;22.30
51460;BME280;37534;39.772;2.718;2023-03-16T13:49:17;101244.88;;;35.46;22.77
51460;BME280;37534;39.772;2.718;2023-03-16T13:51:43;101227.84;;;35.75;22.89
51460;BME280;37534;39.772;2.718;2023-03-16T13:54:30;101236.31;;;36.28;21.93
51460;BME280;37534;39.772;2.718;2023-03-16T13:57:01;101232.97;;;36.61;21.04
51460;BME280;37534;39.772;2.718;2023-03-16T13:59:28;101215.50;;;36.09;21.85
51460;BME280;37534;39.772;2.718;2023-03-16T14:01:55;101216.63;;;35.93;21.67
51460;BME280;37534;39.772;2.718;2023-03-16T14:04:28;101205.78;;;36.08;21.42
51460;BME280;37534;39.772;2.718;2023-03-16T14:06:59;101200.56;;;35.71;22.13
51460;BME280;37534;39.772;2.718;2023-03-16T14:09:31;101199.19;;;36.10;21.79
51460;BME280;37534;39.772;2.718;2023-03-16T14:11:59;101197.16;;;36.12;22.20